createdAt,value
2022-10-07T00:00:51.158Z,3.00
2022-10-07T00:03:19.746Z,3.30
2022-10-07T00:05:46.771Z,2.90
2022-10-07T00:08:13.655Z,3.00
2022-10-07T00:10:42.377Z,3.30
2022-10-07T00:13:12.042Z,3.15
2022-10-07T00:15:39.288Z,3.10
2022-10-07T00:18:06.324Z,2.90
2022-10-07T00:20:42.242Z,3.00
2022-10-07T00:23:09.385Z,3.10
2022-10-07T00:25:37.804Z,3.10
2022-10-07T00:28:05.959Z,3.22
2022-10-07T00:30:33.159Z,3.33
2022-10-07T00:33:00.266Z,3.13
2022-10-07T00:35:27.095Z,2.90
2022-10-07T00:37:54.488Z,3.00
2022-10-07T00:40:21.401Z,3.40
2022-10-07T00:42:48.254Z,2.70
2022-10-07T00:45:17.774Z,3.08
2022-10-07T00:50:29.479Z,3.00
2022-10-07T00:53:02.288Z,3.00
2022-10-07T00:55:31.757Z,3.38
2022-10-07T00:58:02.430Z,3.40
2022-10-07T01:00:29.874Z,3.17
2022-10-07T01:02:59.449Z,3.05
2022-10-07T01:05:26.359Z,2.95
2022-10-07T01:07:58.277Z,3.50
2022-10-07T01:10:35.631Z,3.03
2022-10-07T01:13:16.050Z,4.20
2022-10-07T01:15:57.350Z,3.33
2022-10-07T01:18:37.187Z,3.17
2022-10-07T01:21:38.153Z,3.17
2022-10-07T01:24:26.762Z,3.10
2022-10-07T01:27:01.905Z,2.95
2022-10-07T01:29:38.151Z,3.38
2022-10-07T01:32:26.713Z,3.00
2022-10-07T01:34:55.826Z,3.25
2022-10-07T01:37:24.940Z,3.65
2022-10-07T01:42:21.726Z,3.42
2022-10-07T01:44:54.074Z,3.33
2022-10-07T01:47:21.113Z,3.35
2022-10-07T01:49:48.689Z,3.30
2022-10-07T01:52:24.237Z,3.08
2022-10-07T01:55:23.465Z,3.25
2022-10-07T01:58:18.608Z,3.60
2022-10-07T02:00:50.242Z,3.38
2022-10-07T02:03:31.541Z,3.55
2022-10-07T02:06:06.873Z,3.58
2022-10-07T02:08:45.265Z,3.65
2022-10-07T02:11:27.363Z,3.20
2022-10-07T02:14:12.469Z,3.50
2022-10-07T02:16:47.083Z,3.47
2022-10-07T02:19:47.634Z,3.30
2022-10-07T02:22:17.440Z,3.60
2022-10-07T02:24:47.924Z,4.00
2022-10-07T02:27:19.697Z,4.00
2022-10-07T02:29:54.110Z,4.10
2022-10-07T02:32:24.006Z,3.97
2022-10-07T02:34:57.418Z,4.05
2022-10-07T02:37:31.975Z,3.53
2022-10-07T02:39:59.100Z,3.85
2022-10-07T02:42:48.117Z,3.95
2022-10-07T02:45:28.347Z,4.05
2022-10-07T02:48:20.557Z,3.63
2022-10-07T02:50:52.724Z,3.75
2022-10-07T02:53:21.598Z,3.92
2022-10-07T02:55:51.477Z,4.00
2022-10-07T02:58:20.405Z,4.03
2022-10-07T03:00:55.986Z,4.20
2022-10-07T03:03:27.462Z,3.65
2022-10-07T03:05:59.948Z,3.85
2022-10-07T03:08:27.904Z,3.28
2022-10-07T03:10:55.996Z,3.80
2022-10-07T03:13:24.850Z,3.65
2022-10-07T03:15:56.038Z,3.58
2022-10-07T03:18:26.744Z,3.70
2022-10-07T03:21:01.149Z,4.25
2022-10-07T03:23:29.472Z,4.22
2022-10-07T03:25:58.388Z,3.75
2022-10-07T03:28:28.681Z,4.18
2022-10-07T03:31:04.687Z,4.03
2022-10-07T03:33:31.723Z,3.97
2022-10-07T03:35:58.994Z,3.63
2022-10-07T03:38:25.949Z,4.30
2022-10-07T03:40:52.944Z,3.83
2022-10-07T03:43:19.952Z,4.10
2022-10-07T03:45:51.667Z,3.92
2022-10-07T03:48:18.857Z,4.30
2022-10-07T03:50:50.797Z,3.80
2022-10-07T03:53:18.405Z,3.92
2022-10-07T03:55:45.961Z,3.80
2022-10-07T03:58:13.165Z,3.45
2022-10-07T04:00:41.276Z,3.85
2022-10-07T04:03:09.664Z,3.50
2022-10-07T04:05:40.302Z,3.60
2022-10-07T04:08:07.600Z,3.63
2022-10-07T04:10:35.331Z,3.40
2022-10-07T04:13:02.244Z,3.78
2022-10-07T04:15:29.870Z,3.60
2022-10-07T04:17:58.680Z,4.15
2022-10-07T04:22:54.088Z,4.10
2022-10-07T04:25:37.693Z,4.05
2022-10-07T04:30:44.788Z,3.63
2022-10-07T04:33:13.880Z,3.65
2022-10-07T04:35:41.115Z,3.10
2022-10-07T04:38:10.084Z,3.38
2022-10-07T04:40:40.980Z,3.40
2022-10-07T04:43:19.369Z,3.25
2022-10-07T04:45:55.141Z,3.28
2022-10-07T04:48:23.945Z,3.30
2022-10-07T04:50:53.616Z,3.40
2022-10-07T04:53:22.362Z,3.45
2022-10-07T04:55:54.705Z,3.15
2022-10-07T04:58:24.228Z,3.10
2022-10-07T05:00:53.118Z,3.20
2022-10-07T05:03:25.485Z,3.30
2022-10-07T05:05:54.990Z,3.20
2022-10-07T05:08:24.501Z,3.10
2022-10-07T05:11:00.408Z,3.10
2022-10-07T05:13:31.242Z,3.55
2022-10-07T05:16:02.846Z,3.05
2022-10-07T05:18:31.171Z,2.80
2022-10-07T05:21:07.177Z,2.90
2022-10-07T05:23:37.071Z,2.90
2022-10-07T05:26:10.585Z,3.28
2022-10-07T05:28:41.174Z,3.03
2022-10-07T05:31:14.895Z,3.10
2022-10-07T05:33:46.177Z,2.90
2022-10-07T05:36:13.223Z,2.60
2022-10-07T05:38:40.426Z,4.05
2022-10-07T05:41:10.402Z,3.85
2022-10-07T05:43:45.025Z,3.80
2022-10-07T05:46:17.332Z,3.33
2022-10-07T05:48:51.581Z,3.47
2022-10-07T05:51:21.316Z,3.15
2022-10-07T05:53:53.112Z,3.40
2022-10-07T05:56:21.607Z,2.70
2022-10-07T06:01:19.864Z,2.80
2022-10-07T06:03:54.819Z,2.95
2022-10-07T06:06:25.347Z,3.20
2022-10-07T06:08:54.623Z,3.30
2022-10-07T06:11:40.055Z,3.25
2022-10-07T06:14:07.163Z,3.08
2022-10-07T06:16:34.433Z,3.28
2022-10-07T06:19:01.508Z,3.00
2022-10-07T06:21:31.087Z,3.53
2022-10-07T06:24:02.369Z,3.15
2022-10-07T06:26:34.501Z,3.00
2022-10-07T06:29:04.087Z,3.10
2022-10-07T06:31:32.549Z,3.20
2022-10-07T06:34:02.905Z,3.25
2022-10-07T06:36:31.279Z,2.78
2022-10-07T06:38:59.129Z,3.13
2022-10-07T06:41:35.600Z,2.83
2022-10-07T06:44:19.309Z,2.78
2022-10-07T06:46:46.141Z,3.10
2022-10-07T06:49:13.009Z,2.70
2022-10-07T06:51:39.891Z,2.42
2022-10-07T06:54:07.245Z,2.78
2022-10-07T06:56:35.702Z,2.42
2022-10-07T06:59:03.447Z,3.05
2022-10-07T07:01:38.507Z,2.45
2022-10-07T07:04:05.512Z,2.88
2022-10-07T07:06:37.000Z,2.30
2022-10-07T07:09:05.742Z,2.72
2022-10-07T07:11:40.744Z,2.45
2022-10-07T07:14:32.319Z,2.38
2022-10-07T07:17:04.027Z,2.53
2022-10-07T07:19:31.064Z,2.50
2022-10-07T07:21:58.663Z,2.15
2022-10-07T07:24:27.146Z,2.58
2022-10-07T07:26:54.107Z,2.42
2022-10-07T07:29:22.203Z,2.42
2022-10-07T07:31:56.482Z,2.63
2022-10-07T07:34:26.065Z,2.60
2022-10-07T07:36:53.052Z,2.38
2022-10-07T07:39:23.441Z,2.50
2022-10-07T07:41:56.054Z,2.15
2022-10-07T07:44:24.296Z,2.20
2022-10-07T07:46:54.332Z,2.47
2022-10-07T07:49:23.585Z,2.15
2022-10-07T07:51:50.947Z,2.30
2022-10-07T07:54:25.464Z,2.40
2022-10-07T07:56:52.819Z,2.47
2022-10-07T07:59:21.545Z,2.20
2022-10-07T08:01:50.239Z,2.45
2022-10-07T08:04:17.418Z,2.42
2022-10-07T08:06:45.316Z,2.38
2022-10-07T08:09:13.100Z,2.08
2022-10-07T08:11:45.864Z,2.33
2022-10-07T08:14:17.253Z,1.90
2022-10-07T08:16:46.081Z,2.45
2022-10-07T08:19:13.603Z,2.15
2022-10-07T08:21:40.671Z,2.38
2022-10-07T08:24:12.303Z,2.15
2022-10-07T08:26:39.842Z,2.10
2022-10-07T08:29:09.665Z,2.97
2022-10-07T08:31:36.685Z,2.15
2022-10-07T08:34:05.014Z,2.05
2022-10-07T08:36:32.948Z,2.47
2022-10-07T08:39:01.228Z,3.00
2022-10-07T08:41:33.993Z,2.03
2022-10-07T08:44:17.720Z,2.20
2022-10-07T08:47:04.058Z,2.40
2022-10-07T08:49:48.962Z,2.42
2022-10-07T08:52:21.764Z,2.33
2022-10-07T08:54:48.963Z,2.08
2022-10-07T08:57:25.387Z,2.20
2022-10-07T09:00:05.523Z,2.45
2022-10-07T09:02:58.292Z,2.60
2022-10-07T09:05:34.061Z,2.72
2022-10-07T09:08:12.801Z,2.47
2022-10-07T09:10:53.442Z,2.60
2022-10-07T09:13:27.950Z,2.17
2022-10-07T09:16:16.155Z,2.60
2022-10-07T09:18:50.769Z,2.53
2022-10-07T09:21:25.478Z,2.65
2022-10-07T09:23:57.017Z,2.78
2022-10-07T09:26:27.350Z,2.35
2022-10-07T09:28:54.253Z,2.53
2022-10-07T09:31:23.662Z,2.97
2022-10-07T09:33:52.938Z,2.40
2022-10-07T09:36:20.153Z,2.63
2022-10-07T09:38:54.799Z,2.30
2022-10-07T09:41:32.004Z,2.78
2022-10-07T09:44:26.308Z,2.55
2022-10-07T09:46:57.278Z,2.38
2022-10-07T09:49:30.958Z,2.35
2022-10-07T09:52:16.826Z,2.67
2022-10-07T09:54:45.884Z,2.08
2022-10-07T09:57:28.537Z,2.45
2022-10-07T10:00:13.797Z,2.20
2022-10-07T10:02:46.268Z,2.50
2022-10-07T10:05:29.192Z,2.47
2022-10-07T10:08:20.455Z,2.47
2022-10-07T10:10:56.452Z,2.22
2022-10-07T10:13:27.609Z,2.50
2022-10-07T10:15:54.654Z,2.08
2022-10-07T10:18:31.811Z,2.42
2022-10-07T10:21:15.940Z,2.50
2022-10-07T10:23:52.686Z,2.55
2022-10-07T10:26:50.427Z,2.58
2022-10-07T10:29:32.425Z,2.63
2022-10-07T10:32:07.589Z,2.03
2022-10-07T10:35:14.861Z,2.20
2022-10-07T10:37:41.704Z,2.33
2022-10-07T10:40:27.147Z,2.05
2022-10-07T10:43:20.346Z,2.30
2022-10-07T10:45:58.901Z,2.38
2022-10-07T10:49:06.911Z,2.38
2022-10-07T10:52:02.877Z,2.13
2022-10-07T10:54:43.245Z,2.30
2022-10-07T10:57:35.771Z,2.05
2022-10-07T11:00:13.126Z,2.00
2022-10-07T11:02:43.117Z,2.30
2022-10-07T11:05:17.323Z,2.50
2022-10-07T11:07:54.086Z,1.98
2022-10-07T11:10:25.510Z,2.30
2022-10-07T11:13:05.107Z,1.92
2022-10-07T11:16:01.045Z,2.42
2022-10-07T11:18:50.442Z,2.47
2022-10-07T11:21:25.698Z,2.08
2022-10-07T11:23:55.076Z,2.17
2022-10-07T11:26:26.138Z,1.90
2022-10-07T11:28:53.837Z,2.47
2022-10-07T11:31:33.653Z,2.30
2022-10-07T11:34:17.477Z,1.90
2022-10-07T11:36:54.515Z,2.03
2022-10-07T11:39:22.377Z,2.00
2022-10-07T11:41:56.989Z,1.98
2022-10-07T11:44:35.749Z,2.17
2022-10-07T11:47:06.118Z,2.15
2022-10-07T11:49:41.323Z,2.00
2022-10-07T11:52:27.068Z,1.80
2022-10-07T11:55:10.262Z,2.00
2022-10-07T11:57:43.747Z,1.65
2022-10-07T12:00:27.143Z,2.15
2022-10-07T12:03:07.767Z,1.98
2022-10-07T12:05:34.639Z,2.00
2022-10-07T12:08:34.249Z,1.55
2022-10-07T12:11:13.332Z,1.67
2022-10-07T12:13:53.591Z,1.90
2022-10-07T12:16:32.400Z,1.75
2022-10-07T12:19:07.901Z,1.80
2022-10-07T12:21:59.830Z,1.65
2022-10-07T12:24:28.051Z,1.58
2022-10-07T12:27:26.617Z,1.75
2022-10-07T12:29:59.051Z,2.08
2022-10-07T12:32:44.326Z,1.70
2022-10-07T12:35:29.746Z,1.90
2022-10-07T12:38:17.821Z,1.55
2022-10-07T12:41:07.167Z,1.50
2022-10-07T12:43:37.138Z,1.75
2022-10-07T12:46:12.262Z,2.13
2022-10-07T12:48:48.106Z,1.40
2022-10-07T12:51:21.349Z,1.80
2022-10-07T12:53:50.876Z,1.58
2022-10-07T12:56:22.400Z,1.85
2022-10-07T12:59:38.270Z,1.80
2022-10-07T13:02:42.306Z,2.33
2022-10-07T13:05:38.108Z,1.65
2022-10-07T13:08:29.371Z,1.80
2022-10-07T13:11:35.288Z,1.58
2022-10-07T13:14:27.148Z,1.60
2022-10-07T13:17:02.576Z,2.42
2022-10-07T13:19:50.820Z,1.55
2022-10-07T13:22:21.320Z,1.70
2022-10-07T13:24:51.630Z,1.67
2022-10-07T13:27:25.348Z,1.52
2022-10-07T13:29:53.169Z,1.67
2022-10-07T13:32:30.157Z,2.38
2022-10-07T13:34:58.702Z,1.67
2022-10-07T13:37:29.839Z,2.00
2022-10-07T13:39:58.493Z,1.70
2022-10-07T13:42:29.805Z,1.52
2022-10-07T13:45:02.488Z,1.65
2022-10-07T13:47:33.962Z,1.88
2022-10-07T13:50:02.021Z,2.15
2022-10-07T13:52:35.098Z,1.75
2022-10-07T13:55:02.126Z,2.03
2022-10-07T13:57:31.089Z,1.77
2022-10-07T13:59:59.926Z,2.10
2022-10-07T14:02:27.350Z,1.60
2022-10-07T14:05:18.886Z,1.73
2022-10-07T14:07:45.779Z,2.10
2022-10-07T14:10:13.676Z,1.60
2022-10-07T14:12:49.893Z,1.92
2022-10-07T14:15:25.525Z,2.10
2022-10-07T14:17:56.205Z,2.45
2022-10-07T14:20:33.839Z,2.40
2022-10-07T14:23:03.326Z,1.90
2022-10-07T14:25:53.057Z,1.90
2022-10-07T14:28:28.119Z,1.70
2022-10-07T14:31:26.029Z,1.80
2022-10-07T14:34:37.710Z,1.70
2022-10-07T14:37:09.011Z,1.58
2022-10-07T14:39:49.859Z,1.40
2022-10-07T14:42:32.237Z,1.83
2022-10-07T14:45:01.724Z,1.70
2022-10-07T14:47:37.720Z,1.70
2022-10-07T14:50:04.959Z,1.80
2022-10-07T14:52:48.108Z,1.80
2022-10-07T14:55:25.719Z,1.50
2022-10-07T14:57:53.156Z,1.70
2022-10-07T15:00:27.594Z,1.58
2022-10-07T15:02:54.900Z,1.70
2022-10-07T15:05:22.996Z,1.90
2022-10-07T15:07:51.233Z,2.03
2022-10-07T15:10:21.013Z,1.65
2022-10-07T15:12:48.718Z,1.50
2022-10-07T15:15:16.447Z,1.90
2022-10-07T15:17:44.317Z,1.58
2022-10-07T15:20:14.119Z,1.73
2022-10-07T15:22:41.569Z,1.70
2022-10-07T15:25:10.475Z,2.15
2022-10-07T15:27:37.974Z,1.48
2022-10-07T15:30:07.154Z,1.67
2022-10-07T15:32:34.342Z,1.60
2022-10-07T15:35:01.648Z,1.95
2022-10-07T15:37:28.633Z,1.90
2022-10-07T15:39:55.673Z,1.60
2022-10-07T15:42:26.560Z,1.77
2022-10-07T15:44:53.483Z,1.80
2022-10-07T15:47:20.756Z,1.80
2022-10-07T15:49:47.955Z,2.05
2022-10-07T15:52:14.886Z,1.85
2022-10-07T15:54:41.814Z,1.70
2022-10-07T15:57:09.066Z,1.65
2022-10-07T15:59:35.966Z,1.65
2022-10-07T16:02:04.305Z,1.65
2022-10-07T16:04:31.435Z,1.65
2022-10-07T16:06:58.327Z,1.85
2022-10-07T16:09:25.335Z,1.80
2022-10-07T16:11:52.240Z,1.73
2022-10-07T16:14:19.053Z,1.80
2022-10-07T16:16:46.235Z,1.85
2022-10-07T16:19:13.103Z,2.00
2022-10-07T16:21:42.072Z,2.03
2022-10-07T16:24:16.530Z,1.77
2022-10-07T16:26:45.331Z,1.75
2022-10-07T16:29:39.346Z,2.00
2022-10-07T16:32:10.284Z,2.10
2022-10-07T16:34:43.441Z,1.80
2022-10-07T16:37:11.398Z,1.83
2022-10-07T16:39:38.372Z,1.70
2022-10-07T16:42:08.263Z,2.03
2022-10-07T16:44:35.393Z,2.00
2022-10-07T16:47:02.976Z,2.42
2022-10-07T16:49:30.262Z,1.80
2022-10-07T16:51:57.820Z,1.90
2022-10-07T16:54:25.166Z,2.00
2022-10-07T16:56:52.812Z,2.10
2022-10-07T16:59:23.694Z,2.25
2022-10-07T17:01:53.510Z,2.00
2022-10-07T17:04:20.677Z,2.35
2022-10-07T17:06:50.754Z,2.38
2022-10-07T17:09:18.497Z,2.17
2022-10-07T17:11:46.130Z,2.20
2022-10-07T17:14:18.855Z,2.53
2022-10-07T17:16:48.317Z,2.15
2022-10-07T17:19:18.343Z,2.70
2022-10-07T17:21:47.540Z,2.50
2022-10-07T17:24:15.989Z,2.50
2022-10-07T17:26:43.738Z,2.53
2022-10-07T17:29:12.689Z,2.20
2022-10-07T17:31:43.393Z,2.20
2022-10-07T17:34:11.707Z,2.55
2022-10-07T17:36:39.789Z,2.40
2022-10-07T17:39:07.358Z,2.72
2022-10-07T17:41:36.764Z,2.22
2022-10-07T17:44:08.185Z,2.20
2022-10-07T17:46:39.556Z,2.25
2022-10-07T17:49:08.523Z,2.42
2022-10-07T17:51:37.160Z,2.50
2022-10-07T17:54:06.074Z,2.70
2022-10-07T17:59:01.751Z,2.60
2022-10-07T18:01:31.844Z,2.78
2022-10-07T18:04:00.953Z,2.70
2022-10-07T18:09:02.975Z,2.75
2022-10-07T18:11:48.849Z,2.75
2022-10-07T18:14:34.398Z,3.15
2022-10-07T18:17:01.605Z,2.80
2022-10-07T18:19:29.601Z,2.88
2022-10-07T18:21:56.782Z,3.00
2022-10-07T18:24:27.623Z,2.88
2022-10-07T18:26:59.455Z,2.80
2022-10-07T18:29:27.697Z,3.00
2022-10-07T18:31:54.574Z,3.03
2022-10-07T18:34:21.614Z,2.72
2022-10-07T18:36:50.647Z,2.80
2022-10-07T18:39:20.799Z,2.50
2022-10-07T18:41:47.657Z,2.50
2022-10-07T18:44:14.601Z,2.95
2022-10-07T18:46:41.411Z,2.50
2022-10-07T18:49:09.543Z,3.10
2022-10-07T18:51:37.441Z,2.50
2022-10-07T18:54:04.503Z,2.38
2022-10-07T18:56:31.677Z,2.50
2022-10-07T18:58:58.736Z,2.53
2022-10-07T19:01:30.086Z,2.67
2022-10-07T19:04:01.033Z,2.53
2022-10-07T19:06:30.261Z,2.75
2022-10-07T19:08:59.173Z,3.22
2022-10-07T19:11:26.620Z,2.67
2022-10-07T19:13:58.224Z,2.72
2022-10-07T19:16:34.474Z,2.83
2022-10-07T19:19:09.687Z,2.70
2022-10-07T19:21:36.564Z,2.72
2022-10-07T19:24:04.399Z,2.75
2022-10-07T19:26:37.110Z,2.65
2022-10-07T19:29:05.616Z,2.50
2022-10-07T19:31:35.387Z,2.70
2022-10-07T19:34:05.092Z,2.13
2022-10-07T19:36:34.823Z,2.65
2022-10-07T19:39:01.933Z,2.47
2022-10-07T19:41:33.659Z,2.15
2022-10-07T19:44:00.718Z,2.28
2022-10-07T19:46:28.945Z,2.30
2022-10-07T19:48:58.273Z,2.95
2022-10-07T19:51:27.725Z,2.00
2022-10-07T19:53:57.288Z,2.30
2022-10-07T19:56:26.715Z,2.13
2022-10-07T19:58:56.401Z,2.22
2022-10-07T20:01:25.622Z,2.40
2022-10-07T20:04:20.958Z,2.20
2022-10-07T20:06:48.395Z,2.08
2022-10-07T20:09:17.445Z,2.10
2022-10-07T20:11:44.396Z,2.65
2022-10-07T20:14:11.226Z,2.95
2022-10-07T20:16:39.129Z,2.28
2022-10-07T20:19:10.882Z,2.45
2022-10-07T20:21:38.424Z,2.40
2022-10-07T20:24:06.707Z,2.15
2022-10-07T20:26:36.318Z,2.50
2022-10-07T20:29:05.091Z,2.40
2022-10-07T20:31:34.740Z,2.53
2022-10-07T20:34:02.614Z,2.13
2022-10-07T20:36:31.868Z,2.00
2022-10-07T20:39:22.945Z,2.22
2022-10-07T20:42:09.435Z,2.60
2022-10-07T20:44:36.703Z,2.42
2022-10-07T20:47:08.609Z,2.30
2022-10-07T20:49:37.416Z,2.50
2022-10-07T20:52:11.156Z,2.28
2022-10-07T20:54:37.942Z,2.60
2022-10-07T20:57:05.984Z,2.75
2022-10-07T20:59:33.560Z,2.28
2022-10-07T21:02:03.875Z,2.58
2022-10-07T21:04:33.688Z,2.75
2022-10-07T21:07:01.621Z,2.42
2022-10-07T21:09:28.789Z,2.38
2022-10-07T21:11:57.046Z,2.70
2022-10-07T21:14:23.943Z,2.33
2022-10-07T21:16:52.139Z,2.85
2022-10-07T21:19:19.054Z,2.40
2022-10-07T21:21:47.456Z,2.38
2022-10-07T21:24:14.622Z,2.22
2022-10-07T21:26:41.628Z,2.28
2022-10-07T21:29:10.840Z,2.50
2022-10-07T21:31:38.112Z,2.20
2022-10-07T21:34:08.583Z,2.63
2022-10-07T21:36:40.922Z,2.50
2022-10-07T21:39:08.037Z,2.20
2022-10-07T21:41:37.503Z,2.47
2022-10-07T21:44:06.810Z,2.58
2022-10-07T21:46:36.721Z,2.30
2022-10-07T21:49:06.076Z,2.30
2022-10-07T21:51:34.137Z,2.30
2022-10-07T21:54:01.984Z,3.20
2022-10-07T21:56:31.583Z,3.35
2022-10-07T21:59:01.311Z,3.30
2022-10-07T22:01:29.083Z,3.10
2022-10-07T22:03:58.465Z,2.58
2022-10-07T22:06:44.814Z,2.80
2022-10-07T22:09:13.377Z,2.50
2022-10-07T22:11:40.452Z,3.38
2022-10-07T22:14:12.088Z,2.47
2022-10-07T22:16:40.140Z,2.60
2022-10-07T22:19:06.990Z,2.35
2022-10-07T22:21:38.225Z,2.20
2022-10-07T22:24:07.066Z,2.95
2022-10-07T22:26:46.116Z,2.50
2022-10-07T22:29:15.393Z,2.30
2022-10-07T22:34:29.230Z,2.67
2022-10-07T22:36:57.978Z,2.47
2022-10-07T22:39:28.677Z,2.50
2022-10-07T22:41:56.106Z,2.83
2022-10-07T22:44:22.907Z,2.70
2022-10-07T22:46:49.739Z,2.38
2022-10-07T22:49:16.565Z,2.75
2022-10-07T22:51:43.478Z,2.28
2022-10-07T22:54:14.059Z,2.28
2022-10-07T22:56:40.881Z,3.50
2022-10-07T22:59:08.636Z,2.72
2022-10-07T23:01:36.607Z,2.63
2022-10-07T23:04:04.173Z,2.38
2022-10-07T23:06:33.454Z,2.50
2022-10-07T23:09:00.848Z,2.25
2022-10-07T23:11:29.516Z,2.20
2022-10-07T23:13:56.539Z,2.60
2022-10-07T23:16:26.168Z,2.53
2022-10-07T23:18:53.466Z,2.92
2022-10-07T23:21:23.840Z,2.28
2022-10-07T23:23:52.719Z,2.25
2022-10-07T23:26:22.891Z,2.38
2022-10-07T23:28:51.683Z,2.55
2022-10-07T23:31:20.849Z,2.45
2022-10-07T23:33:49.706Z,2.50
2022-10-07T23:36:17.892Z,2.10
2022-10-07T23:38:44.796Z,2.33
2022-10-07T23:41:17.451Z,2.30
2022-10-07T23:43:44.350Z,2.28
2022-10-07T23:46:14.241Z,2.60
2022-10-07T23:48:42.049Z,2.30
2022-10-07T23:51:11.518Z,2.35
2022-10-07T23:53:38.622Z,2.00
2022-10-07T23:56:05.758Z,2.35
2022-10-07T23:58:33.503Z,2.22
